createdAt,value
2023-02-14T00:02:09.106Z,42
2023-02-14T00:07:26.097Z,55
2023-02-14T00:12:42.591Z,51
2023-02-14T00:17:59.054Z,49
2023-02-14T00:23:15.474Z,48
2023-02-14T00:28:32.324Z,45
2023-02-14T00:33:48.529Z,52
2023-02-14T00:39:05.206Z,50
2023-02-14T00:44:22.023Z,45
2023-02-14T00:49:38.497Z,40
2023-02-14T00:54:54.968Z,45
2023-02-14T01:00:11.737Z,41
2023-02-14T01:05:27.821Z,39
2023-02-14T01:10:44.871Z,44
2023-02-14T01:16:01.378Z,39
2023-02-14T01:21:18.029Z,43
2023-02-14T01:26:34.646Z,33
2023-02-14T01:31:50.934Z,33
2023-02-14T01:37:07.321Z,36
2023-02-14T01:42:23.786Z,38
2023-02-14T01:47:40.184Z,27
2023-02-14T01:52:56.657Z,32
2023-02-14T01:58:13.137Z,38
2023-02-14T02:03:29.590Z,32
2023-02-14T02:08:46.052Z,32
2023-02-14T02:14:02.204Z,32
2023-02-14T02:19:18.663Z,33
2023-02-14T02:24:34.859Z,37
2023-02-14T02:29:51.409Z,35
2023-02-14T02:35:07.770Z,36
2023-02-14T02:40:24.258Z,37
2023-02-14T02:45:41.341Z,42
2023-02-14T02:50:59.116Z,47
2023-02-14T02:56:15.293Z,33
2023-02-14T03:01:32.024Z,40
2023-02-14T03:06:48.212Z,42
2023-02-14T03:12:04.706Z,36
2023-02-14T03:17:21.144Z,36
2023-02-14T03:22:37.312Z,38
2023-02-14T03:27:53.752Z,38
2023-02-14T03:33:10.233Z,39
2023-02-14T03:38:27.214Z,50
2023-02-14T03:43:43.652Z,40
2023-02-14T03:49:00.134Z,41
2023-02-14T03:54:16.568Z,48
2023-02-14T03:59:33.033Z,28
2023-02-14T04:04:49.464Z,32
2023-02-14T04:10:05.904Z,37
2023-02-14T04:15:22.393Z,34
2023-02-14T04:20:38.847Z,35
2023-02-14T04:25:55.866Z,44
2023-02-14T04:31:12.395Z,30
2023-02-14T04:36:28.779Z,32
2023-02-14T04:41:45.228Z,39
2023-02-14T04:47:01.668Z,29
2023-02-14T04:52:18.442Z,32
2023-02-14T04:57:34.949Z,35
2023-02-14T05:02:51.406Z,35
2023-02-14T05:08:07.826Z,41
2023-02-14T05:13:24.282Z,39
2023-02-14T05:18:40.781Z,28
2023-02-14T05:23:57.228Z,33
2023-02-14T05:29:14.019Z,35
2023-02-14T05:34:31.028Z,39
2023-02-14T05:39:47.524Z,27
2023-02-14T05:45:04.003Z,27
2023-02-14T05:50:20.996Z,48
2023-02-14T05:55:37.432Z,30
2023-02-14T06:00:53.929Z,41
2023-02-14T06:06:10.924Z,36
2023-02-14T06:11:27.361Z,32
2023-02-14T06:16:44.075Z,36
2023-02-14T06:22:00.527Z,36
2023-02-14T06:27:16.971Z,40
2023-02-14T06:32:33.417Z,36
2023-02-14T06:37:49.856Z,40
2023-02-14T06:43:06.393Z,51
2023-02-14T06:48:23.398Z,65
2023-02-14T06:53:39.654Z,69
2023-02-14T06:58:56.499Z,62
2023-02-14T07:04:12.998Z,57
2023-02-14T07:09:29.543Z,57
2023-02-14T07:14:46.425Z,54
2023-02-14T07:20:02.770Z,79
2023-02-14T07:25:19.178Z,73
2023-02-14T07:30:36.355Z,68
2023-02-14T07:35:53.053Z,72
2023-02-14T07:41:09.293Z,70
2023-02-14T07:46:26.480Z,66
2023-02-14T07:51:43.500Z,73
2023-02-14T07:57:00.637Z,90
2023-02-14T08:02:17.227Z,75
2023-02-14T08:07:33.936Z,71
2023-02-14T08:12:50.428Z,52
2023-02-14T08:18:06.812Z,42
2023-02-14T08:23:23.830Z,41
2023-02-14T08:28:40.299Z,50
2023-02-14T08:33:56.989Z,46
2023-02-14T08:39:13.813Z,49
2023-02-14T08:44:30.232Z,41
2023-02-14T08:49:46.716Z,42
2023-02-14T08:55:03.130Z,46
2023-02-14T09:00:20.159Z,44
2023-02-14T09:05:36.300Z,45
2023-02-14T09:10:53.332Z,39
2023-02-14T09:16:09.768Z,35
2023-02-14T09:21:26.162Z,34
2023-02-14T09:26:43.095Z,34
2023-02-14T09:31:59.696Z,34
2023-02-14T09:37:15.909Z,32
2023-02-14T09:42:32.328Z,30
2023-02-14T09:47:48.726Z,29
2023-02-14T09:53:05.609Z,31
2023-02-14T09:58:22.682Z,31
2023-02-14T10:03:39.044Z,26
2023-02-14T10:08:55.426Z,28
2023-02-14T10:14:11.831Z,26
2023-02-14T10:19:28.234Z,25
2023-02-14T10:24:44.565Z,20
2023-02-14T10:30:01.009Z,20
2023-02-14T10:35:17.340Z,23
2023-02-14T10:40:33.731Z,22
2023-02-14T10:45:49.830Z,28
2023-02-14T10:51:06.203Z,24
2023-02-14T10:56:22.587Z,21
2023-02-14T11:01:39.031Z,22
2023-02-14T11:06:55.294Z,19
2023-02-14T11:12:11.739Z,21
2023-02-14T11:17:28.142Z,20
2023-02-14T11:22:44.473Z,18
2023-02-14T11:28:00.794Z,19
2023-02-14T11:33:17.173Z,17
2023-02-14T11:38:33.576Z,17
2023-02-14T11:43:49.915Z,15
2023-02-14T11:49:06.245Z,13
2023-02-14T11:54:22.588Z,14
2023-02-14T11:59:38.976Z,15
2023-02-14T12:04:55.049Z,21
2023-02-14T12:10:11.381Z,13
2023-02-14T12:15:27.746Z,16
2023-02-14T12:20:44.081Z,16
2023-02-14T12:26:00.397Z,16
2023-02-14T12:31:16.815Z,16
2023-02-14T12:36:41.554Z,15
2023-02-14T12:42:00.887Z,18
2023-02-14T12:47:17.244Z,20
2023-02-14T12:52:33.580Z,18
2023-02-14T12:57:49.933Z,19
2023-02-14T13:03:06.360Z,19
2023-02-14T13:08:22.753Z,20
2023-02-14T13:13:38.989Z,20
2023-02-14T13:18:55.564Z,21
2023-02-14T13:24:11.918Z,20
2023-02-14T13:29:28.319Z,20
2023-02-14T13:34:44.590Z,19
2023-02-14T13:40:00.935Z,20
2023-02-14T13:45:17.040Z,19
2023-02-14T13:50:33.427Z,20
2023-02-14T13:55:49.935Z,22
2023-02-14T14:01:06.080Z,21
2023-02-14T14:06:22.395Z,20
2023-02-14T14:11:38.819Z,18
2023-02-14T14:16:55.188Z,18
2023-02-14T14:22:11.545Z,20
2023-02-14T14:27:27.910Z,26
2023-02-14T14:32:44.339Z,26
2023-02-14T14:38:00.730Z,19
2023-02-14T14:43:17.065Z,25
2023-02-14T14:48:33.456Z,20
2023-02-14T14:53:49.856Z,19
2023-02-14T14:59:06.250Z,19
2023-02-14T15:04:22.664Z,20
2023-02-14T15:09:38.986Z,24
2023-02-14T15:14:55.386Z,20
2023-02-14T15:20:11.789Z,30
2023-02-14T15:25:28.146Z,28
2023-02-14T15:30:44.595Z,26
2023-02-14T15:36:00.939Z,25
2023-02-14T15:41:17.942Z,27
2023-02-14T15:46:34.300Z,24
2023-02-14T15:51:50.781Z,34
2023-02-14T15:57:07.205Z,31
2023-02-14T16:02:23.683Z,36
2023-02-14T16:07:40.000Z,34
2023-02-14T16:12:57.613Z,27
2023-02-14T16:18:13.052Z,32
2023-02-14T16:23:29.475Z,35
2023-02-14T16:28:45.846Z,36
2023-02-14T16:34:02.791Z,35
2023-02-14T16:39:19.199Z,34
2023-02-14T16:44:35.605Z,40
2023-02-14T16:49:52.022Z,47
2023-02-14T16:55:08.501Z,43
2023-02-14T17:00:24.904Z,41
2023-02-14T17:05:41.117Z,41
2023-02-14T17:10:57.495Z,38
2023-02-14T17:16:13.929Z,45
2023-02-14T17:21:30.363Z,38
2023-02-14T17:26:46.800Z,49
2023-02-14T17:32:03.446Z,46
2023-02-14T17:37:19.688Z,60
2023-02-14T17:42:37.042Z,68
2023-02-14T17:47:54.188Z,67
2023-02-14T17:53:10.465Z,75
2023-02-14T17:58:27.341Z,67
2023-02-14T18:03:44.224Z,62
2023-02-14T18:09:01.335Z,93
2023-02-14T18:14:18.360Z,78
2023-02-14T18:19:34.800Z,74
2023-02-14T18:24:51.073Z,60
2023-02-14T18:30:07.575Z,60
2023-02-14T18:35:24.616Z,62
2023-02-14T18:40:41.313Z,92
2023-02-14T18:45:58.692Z,79
2023-02-14T18:51:14.910Z,84
2023-02-14T18:56:31.712Z,86
2023-02-14T19:01:48.234Z,79
2023-02-14T19:07:04.754Z,71
2023-02-14T19:12:21.922Z,97
2023-02-14T19:17:38.324Z,75
2023-02-14T19:22:55.740Z,77
2023-02-14T19:28:12.911Z,91
2023-02-14T19:33:29.215Z,68
2023-02-14T19:38:45.434Z,69
2023-02-14T19:44:02.300Z,68
2023-02-14T19:49:18.713Z,74
2023-02-14T19:54:35.760Z,76
2023-02-14T19:59:52.270Z,74
2023-02-14T20:05:09.323Z,62
2023-02-14T20:10:25.939Z,66
2023-02-14T20:15:42.238Z,71
2023-02-14T20:20:59.037Z,77
2023-02-14T20:26:15.813Z,71
2023-02-14T20:31:32.199Z,63
2023-02-14T20:36:49.160Z,62
2023-02-14T20:42:06.263Z,69
2023-02-14T20:47:23.414Z,74
2023-02-14T20:52:40.365Z,97
2023-02-14T20:57:57.506Z,90
2023-02-14T21:03:14.399Z,79
2023-02-14T21:08:31.500Z,67
2023-02-14T21:13:48.541Z,72
2023-02-14T21:19:05.404Z,70
2023-02-14T21:24:21.671Z,69
2023-02-14T21:29:37.887Z,64
2023-02-14T21:34:54.753Z,59
2023-02-14T21:40:10.990Z,64
2023-02-14T21:45:27.286Z,72
2023-02-14T21:50:43.913Z,64
2023-02-14T21:56:01.061Z,62
2023-02-14T22:01:17.580Z,60
2023-02-14T22:06:34.029Z,59
2023-02-14T22:11:51.174Z,62
2023-02-14T22:17:07.793Z,60
2023-02-14T22:22:24.929Z,62
2023-02-14T22:27:41.362Z,57
2023-02-14T22:32:57.874Z,59
2023-02-14T22:38:14.404Z,58
2023-02-14T22:43:31.365Z,55
2023-02-14T22:48:47.572Z,60
2023-02-14T22:54:04.090Z,50
2023-02-14T22:59:20.361Z,52
2023-02-14T23:04:37.349Z,51
2023-02-14T23:09:53.506Z,50
2023-02-14T23:15:09.715Z,46
2023-02-14T23:20:26.190Z,45
2023-02-14T23:25:42.661Z,47
2023-02-14T23:30:59.849Z,48
2023-02-14T23:36:16.387Z,48
2023-02-14T23:41:32.917Z,46
2023-02-14T23:46:49.452Z,47
2023-02-14T23:52:05.868Z,45
2023-02-14T23:57:22.308Z,43
